Time;durP1;ratioP1;P1;durP2;ratioP2;P2;SDS_P1;SDS_P2;PMS_P1;PMS_P2;Temp;Humidity;BMP_temperature;BMP_pressure;BME280_temperature;BME280_humidity;BME280_pressure;Samples;Min_cycle;Max_cycle;Signal;HPM_P1;HPM_P2
2024/02/15 00:01:01;;;;;;;39.53;19.60;;;13.80;99.90;;;;;;5032735;28;20710;-75
2024/02/15 00:03:27;;;;;;;31.80;17.42;;;13.90;99.90;;;;;;5037593;28;20040;-75
2024/02/15 00:05:52;;;;;;;35.20;19.05;;;13.90;99.90;;;;;;5034469;28;20393;-75
2024/02/15 00:08:20;;;;;;;37.25;15.82;;;13.80;99.90;;;;;;5036237;28;20025;-75
2024/02/15 00:10:46;;;;;;;31.83;17.40;;;13.80;99.90;;;;;;5041648;28;20025;-75
2024/02/15 00:13:15;;;;;;;35.42;18.15;;;13.80;99.90;;;;;;5037004;28;20025;-75
2024/02/15 00:15:41;;;;;;;38.63;17.25;;;13.90;99.90;;;;;;5038979;28;20029;-75
2024/02/15 00:18:07;;;;;;;39.90;17.73;;;13.80;99.90;;;;;;5038446;28;20478;-75
2024/02/15 00:20:35;;;;;;;34.22;15.85;;;13.90;99.90;;;;;;5033845;28;20036;-75
2024/02/15 00:23:01;;;;;;;34.40;16.02;;;13.80;99.90;;;;;;5031549;28;20088;-75
2024/02/15 00:25:27;;;;;;;32.17;16.63;;;13.80;99.90;;;;;;5035797;28;20025;-75
2024/02/15 00:27:53;;;;;;;32.00;16.23;;;13.90;99.90;;;;;;5039671;28;20040;-75
2024/02/15 00:30:18;;;;;;;34.75;15.13;;;13.80;99.90;;;;;;5034873;28;20027;-75
2024/02/15 00:32:46;;;;;;;30.90;13.98;;;13.80;99.90;;;;;;5036913;28;20037;-75
2024/02/15 00:35:13;;;;;;;25.83;12.98;;;13.90;99.90;;;;;;5036201;28;20021;-75
2024/02/15 00:37:41;;;;;;;35.90;13.75;;;14.00;99.90;;;;;;5038495;28;20024;-75
2024/02/15 00:40:07;;;;;;;32.03;14.00;;;13.90;99.90;;;;;;5036468;28;20029;-75
2024/02/15 00:42:33;;;;;;;30.58;13.20;;;13.80;99.90;;;;;;5037642;28;20036;-75
2024/02/15 00:44:58;;;;;;;24.27;13.18;;;13.90;99.90;;;;;;5039213;28;20028;-75
2024/02/15 00:47:24;;;;;;;24.58;12.77;;;13.80;99.90;;;;;;5037229;28;20505;-75
2024/02/15 00:49:50;;;;;;;29.50;11.93;;;13.80;99.90;;;;;;5040418;28;20386;-75
2024/02/15 00:52:19;;;;;;;25.60;12.20;;;13.80;99.90;;;;;;5032561;28;20159;-75
2024/02/15 00:54:46;;;;;;;27.15;11.55;;;13.80;99.90;;;;;;5035377;28;20022;-75
2024/02/15 00:57:12;;;;;;;29.85;12.73;;;13.80;99.90;;;;;;5035747;28;20025;-75
2024/02/15 00:59:37;;;;;;;27.10;10.77;;;13.80;99.90;;;;;;5037514;28;20040;-75
2024/02/15 01:02:03;;;;;;;21.58;10.88;;;13.80;99.90;;;;;;5039004;28;20502;-75
2024/02/15 01:04:29;;;;;;;24.02;11.43;;;13.80;99.90;;;;;;5031124;28;20037;-75
2024/02/15 01:06:55;;;;;;;24.85;11.30;;;13.80;99.90;;;;;;5036226;28;20021;-75
2024/02/15 01:09:23;;;;;;;27.60;10.90;;;13.80;99.90;;;;;;5037288;28;20466;-75
2024/02/15 01:11:49;;;;;;;26.30;10.30;;;13.80;99.90;;;;;;5037733;28;20028;-75
2024/02/15 01:14:15;;;;;;;21.80;9.82;;;13.80;99.90;;;;;;5038997;28;20021;-75
2024/02/15 01:16:41;;;;;;;29.95;10.88;;;13.90;99.90;;;;;;5036045;28;20481;-75
2024/02/15 01:19:07;;;;;;;22.77;10.10;;;13.90;99.90;;;;;;5038901;28;20018;-75
2024/02/15 01:21:33;;;;;;;27.65;10.35;;;13.80;99.90;;;;;;5039289;28;20458;-75
2024/02/15 01:24:00;;;;;;;22.58;10.18;;;13.80;99.90;;;;;;5035185;28;20025;-75
2024/02/15 01:26:26;;;;;;;23.17;9.48;;;13.80;99.90;;;;;;5037199;28;20035;-75
2024/02/15 01:28:52;;;;;;;25.33;9.88;;;13.80;99.90;;;;;;5038319;28;20035;-75
2024/02/15 01:31:18;;;;;;;21.85;9.25;;;13.80;99.90;;;;;;5038339;28;20377;-75
2024/02/15 01:33:47;;;;;;;23.00;10.07;;;13.80;99.90;;;;;;5041582;28;20480;-75
2024/02/15 01:36:17;;;;;;;22.65;10.25;;;13.80;99.90;;;;;;5034325;28;20191;-75
2024/02/15 01:38:43;;;;;;;25.02;10.38;;;13.80;99.90;;;;;;5036834;28;20088;-75
2024/02/15 01:41:09;;;;;;;19.02;9.38;;;13.70;99.90;;;;;;5036411;28;20034;-74
2024/02/15 01:43:35;;;;;;;21.30;8.93;;;13.70;99.90;;;;;;5033123;28;20498;-75
2024/02/15 01:46:10;;;;;;;24.95;10.30;;;13.80;99.90;;;;;;5034707;28;20394;-75
2024/02/15 01:48:38;;;;;;;22.40;10.95;;;13.80;99.90;;;;;;5035359;28;20024;-74
2024/02/15 01:51:04;;;;;;;16.90;5.95;;;13.80;99.90;;;;;;5034866;28;20112;-73
2024/02/15 01:53:30;;;;;;;18.20;8.77;;;13.80;99.90;;;;;;5034915;28;20045;-75
2024/02/15 01:55:57;;;;;;;16.63;8.93;;;13.80;99.90;;;;;;5034982;28;20488;-75
2024/02/15 01:58:25;;;;;;;27.83;10.52;;;13.80;99.90;;;;;;5034140;28;20021;-74
2024/02/15 02:00:51;;;;;;;21.80;10.23;;;13.80;99.90;;;;;;5027489;28;20490;-75
2024/02/15 02:03:20;;;;;;;22.50;9.77;;;13.80;99.90;;;;;;5033633;28;20474;-75
2024/02/15 02:05:46;;;;;;;21.42;9.60;;;13.70;99.90;;;;;;5034691;28;20025;-75
2024/02/15 02:08:11;;;;;;;20.92;10.85;;;13.70;99.90;;;;;;5034208;28;20096;-75
2024/02/15 02:10:38;;;;;;;25.42;9.93;;;13.60;99.90;;;;;;5034577;28;20072;-75
2024/02/15 02:13:05;;;;;;;28.02;10.25;;;13.60;99.90;;;;;;5034857;28;20479;-75
2024/02/15 02:15:36;;;;;;;27.40;9.82;;;13.60;99.90;;;;;;5034449;28;20025;-75
2024/02/15 02:18:06;;;;;;;24.45;10.63;;;13.60;99.90;;;;;;5034931;28;20542;-75
2024/02/15 02:20:32;;;;;;;20.85;10.10;;;13.60;99.90;;;;;;5034661;28;20030;-75
2024/02/15 02:23:22;;;;;;;24.90;10.13;;;13.60;99.90;;;;;;5034703;28;20026;-74
2024/02/15 02:25:49;;;;;;;23.77;8.68;;;13.60;99.90;;;;;;5034305;28;20026;-75
2024/02/15 02:28:15;;;;;;;19.48;8.95;;;13.50;99.90;;;;;;5034415;28;20064;-75
2024/02/15 02:30:44;;;;;;;23.40;8.48;;;13.60;99.90;;;;;;5033013;28;20554;-75
2024/02/15 02:33:21;;;;;;;20.88;9.98;;;13.50;99.90;;;;;;5034437;28;20018;-75
2024/02/15 02:35:47;;;;;;;20.65;8.63;;;13.50;99.90;;;;;;5034080;28;20049;-75
2024/02/15 02:38:14;;;;;;;25.52;8.93;;;13.50;99.90;;;;;;5033754;28;20028;-75
2024/02/15 02:40:40;;;;;;;23.10;7.60;;;13.50;99.90;;;;;;5034278;28;20061;-75
2024/02/15 02:43:06;;;;;;;19.52;7.55;;;13.50;99.90;;;;;;5033983;28;20021;-75
2024/02/15 02:45:33;;;;;;;18.70;7.93;;;13.50;99.90;;;;;;5032156;28;20040;-75
2024/02/15 02:47:58;;;;;;;21.50;7.22;;;13.50;99.90;;;;;;5034294;28;20017;-75
2024/02/15 02:50:24;;;;;;;24.92;8.48;;;13.50;99.90;;;;;;5034276;28;20386;-75
2024/02/15 02:52:50;;;;;;;14.48;6.80;;;13.50;99.90;;;;;;5033789;28;20025;-75
2024/02/15 02:55:16;;;;;;;22.27;8.40;;;13.50;99.90;;;;;;5033940;28;20021;-75
2024/02/15 02:57:42;;;;;;;17.17;6.82;;;13.60;99.90;;;;;;5034506;28;20033;-75
2024/02/15 03:00:12;;;;;;;20.02;6.72;;;13.50;99.90;;;;;;5016374;28;20083;-75
2024/02/15 03:02:39;;;;;;;17.88;6.93;;;13.50;99.90;;;;;;5026463;28;20042;-75
2024/02/15 03:05:06;;;;;;;19.75;6.75;;;13.60;99.90;;;;;;5034052;28;20014;-75
2024/02/15 03:07:40;;;;;;;22.02;5.50;;;13.60;99.90;;;;;;5032877;28;20033;-75
2024/02/15 03:10:09;;;;;;;13.60;5.80;;;13.60;99.90;;;;;;5034163;28;20018;-75
2024/02/15 03:12:36;;;;;;;19.80;6.45;;;13.50;99.90;;;;;;5033788;28;20082;-75
2024/02/15 03:15:03;;;;;;;16.92;5.18;;;13.60;99.90;;;;;;5033728;28;20124;-75
2024/02/15 03:17:31;;;;;;;13.65;5.00;;;13.60;99.90;;;;;;5033472;28;20025;-75
2024/02/15 03:19:57;;;;;;;19.92;5.82;;;13.60;99.90;;;;;;5033318;28;20025;-75
2024/02/15 03:22:25;;;;;;;11.70;5.10;;;13.50;99.90;;;;;;5033749;28;20026;-75
2024/02/15 03:24:51;;;;;;;11.02;5.03;;;13.50;99.90;;;;;;5033889;28;20021;-74
2024/02/15 03:27:16;;;;;;;18.75;5.00;;;13.60;99.90;;;;;;5046368;28;20028;-75
2024/02/15 03:29:42;;;;;;;16.88;4.60;;;13.60;99.90;;;;;;5033664;28;20390;-75
2024/02/15 03:32:09;;;;;;;12.45;4.07;;;13.60;99.90;;;;;;5033007;28;20036;-75
2024/02/15 03:34:35;;;;;;;10.32;4.57;;;13.60;99.90;;;;;;5032568;28;20028;-75
2024/02/15 03:37:04;;;;;;;13.25;4.60;;;13.60;99.90;;;;;;5033259;28;20025;-74
2024/02/15 03:39:30;;;;;;;9.07;4.00;;;13.60;99.90;;;;;;5033744;28;20021;-75
2024/02/15 03:41:56;;;;;;;10.77;3.78;;;13.70;99.90;;;;;;5031821;28;20061;-74
2024/02/15 03:44:25;;;;;;;13.30;3.72;;;13.60;99.90;;;;;;5033409;28;20068;-75
2024/02/15 03:46:53;;;;;;;15.57;4.47;;;13.60;99.90;;;;;;5032695;28;20032;-74
2024/02/15 03:49:19;;;;;;;11.73;4.43;;;13.60;99.90;;;;;;5032315;28;20056;-74
2024/02/15 03:51:44;;;;;;;15.80;4.68;;;13.60;99.90;;;;;;5031920;28;20049;-74
2024/02/15 03:54:13;;;;;;;13.18;4.80;;;13.60;99.90;;;;;;5033345;28;20030;-74
2024/02/15 03:56:52;;;;;;;11.57;3.80;;;13.70;99.90;;;;;;5032637;28;20022;-74
2024/02/15 03:59:26;;;;;;;11.23;4.85;;;13.60;99.90;;;;;;5032959;28;20021;-73
2024/02/15 04:01:53;;;;;;;12.25;4.28;;;13.60;99.90;;;;;;5020056;28;20514;-74
2024/02/15 04:04:22;;;;;;;15.77;4.50;;;13.60;99.90;;;;;;5028408;28;20053;-74
2024/02/15 04:06:49;;;;;;;11.20;3.80;;;13.60;99.90;;;;;;5031070;28;20104;-74
2024/02/15 04:09:17;;;;;;;12.98;4.82;;;13.60;99.90;;;;;;5032797;28;20025;-74
2024/02/15 04:11:44;;;;;;;17.17;5.40;;;13.60;99.90;;;;;;5032340;28;20040;-74
2024/02/15 04:14:09;;;;;;;19.77;4.82;;;13.50;99.90;;;;;;5033057;28;20021;-74
2024/02/15 04:16:35;;;;;;;15.93;4.40;;;13.60;99.90;;;;;;5032446;28;20156;-75
2024/02/15 04:19:02;;;;;;;11.48;4.07;;;13.60;99.90;;;;;;5032613;28;20422;-75
2024/02/15 04:21:28;;;;;;;11.32;4.13;;;13.60;99.90;;;;;;5032272;28;20496;-75
2024/02/15 04:23:54;;;;;;;15.77;4.90;;;13.60;99.90;;;;;;5032403;28;20160;-75
2024/02/15 04:26:20;;;;;;;13.93;4.38;;;13.60;99.90;;;;;;5031922;28;20497;-75
2024/02/15 04:28:52;;;;;;;16.40;4.80;;;13.60;99.90;;;;;;5025526;28;20030;-75
2024/02/15 04:31:18;;;;;;;15.10;4.13;;;13.60;99.90;;;;;;5015824;28;20080;-75
2024/02/15 04:33:44;;;;;;;11.57;4.15;;;13.60;99.90;;;;;;5012453;28;20026;-75
2024/02/15 04:36:11;;;;;;;12.73;4.45;;;13.70;99.90;;;;;;5012991;28;20026;-75
2024/02/15 04:38:39;;;;;;;11.15;4.13;;;13.70;99.90;;;;;;5012251;28;20026;-74
2024/02/15 04:41:08;;;;;;;15.15;4.90;;;13.70;99.90;;;;;;5012482;28;20141;-74
2024/02/15 04:43:35;;;;;;;11.45;4.82;;;13.70;99.90;;;;;;5031897;28;20021;-74
2024/02/15 04:46:02;;;;;;;15.82;4.78;;;13.70;99.90;;;;;;5031421;28;20108;-74
2024/02/15 04:48:29;;;;;;;12.65;4.05;;;13.60;99.90;;;;;;5031268;28;20113;-74
2024/02/15 04:50:59;;;;;;;12.55;3.95;;;13.60;99.90;;;;;;5032402;28;20021;-73
2024/02/15 04:53:25;;;;;;;13.18;4.50;;;13.60;99.90;;;;;;5032230;28;20109;-74
2024/02/15 04:55:50;;;;;;;10.68;4.30;;;13.60;99.90;;;;;;5031126;28;20104;-74
2024/02/15 04:58:16;;;;;;;13.05;4.90;;;13.60;99.90;;;;;;5031797;28;20446;-75
2024/02/15 05:00:42;;;;;;;9.50;4.20;;;13.60;99.90;;;;;;5031092;28;20041;-74
2024/02/15 05:03:07;;;;;;;10.00;3.70;;;13.60;99.90;;;;;;5032358;28;20034;-75
2024/02/15 05:05:33;;;;;;;12.73;4.38;;;13.60;99.90;;;;;;5028514;28;20517;-75
2024/02/15 05:08:01;;;;;;;13.02;3.58;;;13.70;99.90;;;;;;5020064;28;20110;-75
2024/02/15 05:10:27;;;;;;;11.10;4.53;;;13.70;99.90;;;;;;5012396;28;20068;-75
2024/02/15 05:12:53;;;;;;;15.00;4.53;;;13.70;99.90;;;;;;5012199;28;20045;-75
2024/02/15 05:15:22;;;;;;;10.73;4.57;;;13.70;99.90;;;;;;5012375;28;20014;-75
2024/02/15 05:17:48;;;;;;;13.43;4.60;;;13.60;99.90;;;;;;5012766;28;20041;-75
2024/02/15 05:20:15;;;;;;;12.43;4.47;;;13.70;99.90;;;;;;5010770;28;20018;-75
2024/02/15 05:22:45;;;;;;;13.30;4.30;;;13.70;99.90;;;;;;5012268;28;20029;-75
2024/02/15 05:25:12;;;;;;;11.73;5.05;;;13.70;99.90;;;;;;5012528;28;20367;-75
2024/02/15 05:27:38;;;;;;;16.05;4.80;;;13.80;99.90;;;;;;5011722;28;20026;-75
2024/02/15 05:30:06;;;;;;;15.52;5.72;;;13.70;99.90;;;;;;5012726;28;20379;-75
2024/02/15 05:32:41;;;;;;;9.05;5.07;;;13.70;99.90;;;;;;5012267;28;20503;-75
2024/02/15 05:35:11;;;;;;;14.18;4.70;;;13.80;99.90;;;;;;5011205;28;20045;-75
2024/02/15 05:37:37;;;;;;;11.63;4.15;;;13.80;99.90;;;;;;5011082;28;20022;-75
2024/02/15 05:40:04;;;;;;;11.27;4.28;;;13.70;99.90;;;;;;5012303;28;20080;-75
2024/02/15 05:42:30;;;;;;;15.77;4.88;;;13.70;99.90;;;;;;5022385;28;20030;-75
2024/02/15 05:45:20;;;;;;;23.30;4.78;;;13.70;99.90;;;;;;5031640;28;20028;-75
2024/02/15 05:47:46;;;;;;;13.57;4.05;;;13.70;99.90;;;;;;5031697;28;20021;-75
2024/02/15 05:50:12;;;;;;;15.10;4.22;;;13.70;99.90;;;;;;5031969;28;20091;-75
2024/02/15 05:52:38;;;;;;;14.18;4.25;;;13.70;99.90;;;;;;5031912;28;20018;-75
2024/02/15 05:55:04;;;;;;;9.90;3.75;;;13.70;99.90;;;;;;5031801;28;20036;-75
2024/02/15 05:57:29;;;;;;;12.02;3.80;;;13.70;99.90;;;;;;5031285;28;20025;-75
2024/02/15 05:59:55;;;;;;;12.52;4.10;;;13.70;99.90;;;;;;5032100;28;20039;-75
2024/02/15 06:02:20;;;;;;;16.42;4.38;;;13.70;99.90;;;;;;5030859;28;20087;-74
2024/02/15 06:04:46;;;;;;;11.07;3.63;;;13.70;99.90;;;;;;5031248;28;20025;-74
2024/02/15 06:07:12;;;;;;;12.20;3.75;;;13.60;99.90;;;;;;5029726;28;20045;-73
2024/02/15 06:09:39;;;;;;;15.13;4.00;;;13.70;99.90;;;;;;5030881;28;20048;-73
2024/02/15 06:12:06;;;;;;;15.43;4.18;;;13.70;99.90;;;;;;5031586;28;20033;-74
2024/02/15 06:14:32;;;;;;;15.38;4.20;;;13.70;99.90;;;;;;5032573;28;20065;-74
2024/02/15 06:16:57;;;;;;;10.43;4.10;;;13.70;99.90;;;;;;5035323;28;20128;-70
2024/02/15 06:19:24;;;;;;;13.57;4.22;;;13.60;99.90;;;;;;5028114;28;20375;-73
2024/02/15 06:21:50;;;;;;;19.58;5.25;;;13.60;99.90;;;;;;5020765;28;20033;-73
2024/02/15 06:24:15;;;;;;;17.52;5.00;;;13.60;99.90;;;;;;5015209;28;20424;-74
2024/02/15 06:26:42;;;;;;;14.77;4.18;;;13.60;99.90;;;;;;5014689;28;20030;-74
2024/02/15 06:40:23;;;;;;;13.43;4.55;;;13.50;99.90;;;;;;5024130;28;20036;-74
2024/02/15 06:42:49;;;;;;;12.00;5.03;;;13.50;99.90;;;;;;5034231;28;20038;-75
2024/02/15 06:45:14;;;;;;;12.25;4.45;;;13.60;99.90;;;;;;5034485;28;20036;-75
2024/02/15 06:47:46;;;;;;;17.52;5.57;;;13.60;99.90;;;;;;5030991;28;20030;-75
2024/02/15 06:50:13;;;;;;;12.57;5.95;;;13.60;99.90;;;;;;5022423;28;20030;-75
2024/02/15 06:52:39;;;;;;;12.95;5.45;;;13.60;99.90;;;;;;5033960;28;20080;-75
2024/02/15 06:55:11;;;;;;;15.45;5.68;;;13.60;99.90;;;;;;5033734;28;20033;-75
2024/02/15 06:57:40;;;;;;;14.98;5.68;;;13.50;99.90;;;;;;5034121;28;20064;-75
2024/02/15 07:00:08;;;;;;;15.48;5.47;;;13.50;99.90;;;;;;5034054;28;20467;-75
2024/02/15 07:02:34;;;;;;;22.27;5.78;;;13.50;99.90;;;;;;5033580;28;20482;-75
2024/02/15 07:04:59;;;;;;;8.85;5.25;;;13.50;99.90;;;;;;5030892;28;20029;-75
2024/02/15 07:07:25;;;;;;;15.40;5.05;;;13.60;99.90;;;;;;5033322;28;20034;-75
2024/02/15 07:09:51;;;;;;;17.83;5.95;;;13.60;99.90;;;;;;5033441;28;20025;-75
2024/02/15 07:12:23;;;;;;;14.05;5.15;;;13.60;99.90;;;;;;5031832;28;20079;-74
2024/02/15 07:14:51;;;;;;;15.88;5.40;;;13.60;99.90;;;;;;5033417;28;20030;-74
2024/02/15 07:17:56;;;;;;;13.27;4.80;;;13.60;99.90;;;;;;5032326;28;20022;-74
2024/02/15 07:20:30;;;;;;;10.38;4.57;;;13.60;99.90;;;;;;5034734;28;20037;-75
2024/02/15 07:22:58;;;;;;;17.92;5.32;;;13.70;99.90;;;;;;5033553;28;20041;-75
2024/02/15 07:25:24;;;;;;;11.10;4.22;;;13.70;99.90;;;;;;5025210;28;20192;-75
2024/02/15 07:27:49;;;;;;;16.77;4.43;;;13.60;99.90;;;;;;5020781;28;20475;-75
2024/02/15 07:30:15;;;;;;;10.05;4.07;;;13.60;99.90;;;;;;5029672;28;20021;-75
2024/02/15 07:32:41;;;;;;;13.52;4.65;;;13.60;99.90;;;;;;5031890;28;20036;-75
2024/02/15 07:35:07;;;;;;;10.10;4.40;;;13.50;99.90;;;;;;5031906;28;20028;-75
2024/02/15 07:37:33;;;;;;;14.85;4.50;;;13.60;99.90;;;;;;5033305;28;20462;-75
2024/02/15 07:39:59;;;;;;;16.63;5.20;;;13.50;99.90;;;;;;5023132;28;20468;-74
2024/02/15 07:42:25;;;;;;;9.00;4.20;;;13.60;99.90;;;;;;5017626;28;20042;-75
2024/02/15 07:44:54;;;;;;;12.90;4.60;;;13.60;99.90;;;;;;5021800;28;20022;-72
2024/02/15 07:47:24;;;;;;;10.20;4.75;;;13.60;99.90;;;;;;5029112;28;20117;-75
2024/02/15 07:49:50;;;;;;;13.38;4.68;;;13.60;99.90;;;;;;5032017;28;20021;-75
2024/02/15 07:52:16;;;;;;;14.82;4.70;;;13.60;99.90;;;;;;5032422;28;20025;-75
2024/02/15 07:54:42;;;;;;;14.95;5.40;;;13.60;99.90;;;;;;5033233;28;20131;-75
2024/02/15 07:57:09;;;;;;;9.63;4.78;;;13.50;99.90;;;;;;5032903;28;20475;-75
2024/02/15 07:59:35;;;;;;;12.82;5.45;;;13.50;99.90;;;;;;5032509;28;20052;-75
2024/02/15 08:02:02;;;;;;;14.38;4.97;;;13.60;99.90;;;;;;5028048;28;20041;-75
2024/02/15 08:04:28;;;;;;;14.18;4.60;;;13.60;99.90;;;;;;5032730;28;20021;-75
2024/02/15 08:06:55;;;;;;;8.82;4.43;;;13.60;99.90;;;;;;5031396;28;20034;-75
2024/02/15 08:09:23;;;;;;;15.68;4.82;;;13.60;99.90;;;;;;5032725;28;20158;-75
2024/02/15 08:11:51;;;;;;;12.38;4.35;;;13.60;99.90;;;;;;5032790;28;20022;-75
2024/02/15 08:14:16;;;;;;;13.18;4.18;;;13.60;99.90;;;;;;5032513;28;20025;-75
2024/02/15 08:16:42;;;;;;;10.10;3.65;;;13.70;99.90;;;;;;5032745;28;20475;-75
2024/02/15 08:19:08;;;;;;;12.27;3.47;;;13.80;99.90;;;;;;5032414;28;20459;-75
2024/02/15 08:21:36;;;;;;;12.68;5.30;;;13.80;99.90;;;;;;5018712;28;20041;-75
2024/02/15 08:24:06;;;;;;;12.63;3.95;;;13.80;99.90;;;;;;5012542;28;20040;-75
2024/02/15 08:26:33;;;;;;;6.47;3.20;;;13.80;99.90;;;;;;5005872;28;20042;-75
2024/02/15 08:28:58;;;;;;;8.50;3.72;;;13.80;99.90;;;;;;5034094;28;20013;-75
2024/02/15 08:31:28;;;;;;;7.68;3.70;;;13.80;99.90;;;;;;5038725;28;20118;-74
2024/02/15 08:34:05;;;;;;;17.52;4.78;;;13.70;99.90;;;;;;5052574;28;20028;-74
2024/02/15 08:36:39;;;;;;;10.40;3.45;;;13.80;99.90;;;;;;5033158;28;20037;-75
2024/02/15 08:39:05;;;;;;;12.27;3.17;;;13.80;99.90;;;;;;5037808;28;20490;-74
2024/02/15 08:41:31;;;;;;;10.25;3.60;;;13.90;99.90;;;;;;5030858;28;20037;-71
2024/02/15 08:43:58;;;;;;;11.82;2.97;;;13.80;99.90;;;;;;5036847;28;20021;-74
2024/02/15 08:46:25;;;;;;;7.28;2.95;;;13.90;99.90;;;;;;5037477;28;20481;-72
2024/02/15 08:48:51;;;;;;;9.00;3.22;;;13.90;99.90;;;;;;5039831;28;20348;-73
2024/02/15 08:51:17;;;;;;;13.50;5.38;;;13.90;99.90;;;;;;5033457;28;20059;-74
2024/02/15 08:53:43;;;;;;;10.68;2.83;;;13.90;99.90;;;;;;5033983;28;20115;-75
2024/02/15 08:56:10;;;;;;;14.80;3.30;;;13.90;99.90;;;;;;5037645;28;20030;-73
2024/02/15 08:58:35;;;;;;;6.40;2.53;;;13.90;99.90;;;;;;5038259;28;20031;-74
2024/02/15 09:01:02;;;;;;;12.50;3.15;;;14.00;99.90;;;;;;5036897;28;20025;-73
2024/02/15 09:03:28;;;;;;;13.80;2.95;;;14.00;99.90;;;;;;5036717;28;20083;-73
2024/02/15 09:05:54;;;;;;;7.57;2.58;;;14.00;99.90;;;;;;5039079;28;20021;-72
2024/02/15 09:08:20;;;;;;;6.60;2.80;;;14.00;99.90;;;;;;5036950;28;20025;-72
2024/02/15 09:10:49;;;;;;;8.43;2.90;;;14.10;99.90;;;;;;5040182;28;20012;-74
2024/02/15 09:13:15;;;;;;;5.65;2.28;;;14.10;99.90;;;;;;5036346;28;20040;-74
2024/02/15 09:15:41;;;;;;;9.95;2.90;;;14.10;99.90;;;;;;5035871;28;20470;-73
2024/02/15 09:18:09;;;;;;;13.02;3.10;;;14.10;99.90;;;;;;5040069;28;20009;-74
2024/02/15 09:20:37;;;;;;;5.68;1.83;;;14.10;99.90;;;;;;5038923;28;20029;-74
2024/02/15 09:23:09;;;;;;;10.55;6.18;;;14.10;99.90;;;;;;5037721;28;20021;-74
2024/02/15 09:25:37;;;;;;;6.87;2.20;;;14.10;99.90;;;;;;5032969;28;20025;-74
2024/02/15 09:28:03;;;;;;;9.75;3.08;;;14.10;99.90;;;;;;5036637;28;20021;-73
2024/02/15 09:30:31;;;;;;;7.93;2.90;;;14.10;99.90;;;;;;5038291;28;20074;-72
2024/02/15 09:32:57;;;;;;;8.20;2.53;;;14.20;99.90;;;;;;5035203;28;20506;-73
2024/02/15 09:35:23;;;;;;;6.05;2.05;;;14.20;99.90;;;;;;5031156;28;20543;-72
2024/02/15 09:37:49;;;;;;;6.22;2.20;;;14.20;99.90;;;;;;5034842;28;20025;-74
2024/02/15 09:40:16;;;;;;;6.75;2.22;;;14.20;99.90;;;;;;5036500;28;20026;-74
2024/02/15 09:42:44;;;;;;;6.18;2.53;;;14.30;99.90;;;;;;5033536;28;20052;-75
2024/02/15 09:45:16;;;;;;;6.47;2.00;;;14.30;99.90;;;;;;5033807;28;20018;-74
2024/02/15 09:47:42;;;;;;;8.70;2.58;;;14.40;99.90;;;;;;5036327;28;20022;-74
2024/02/15 09:50:33;;;;;;;10.60;2.58;;;14.40;99.90;;;;;;5039745;28;20013;-71
2024/02/15 09:53:06;;;;;;;4.28;1.73;;;14.40;99.90;;;;;;5005841;28;20108;-74
2024/02/15 09:55:35;;;;;;;4.80;2.25;;;14.50;99.90;;;;;;5035939;28;20393;-73
2024/02/15 09:58:04;;;;;;;5.10;1.80;;;14.50;99.90;;;;;;5041866;28;20129;-74
2024/02/15 10:00:34;;;;;;;10.90;7.63;;;14.50;99.90;;;;;;5040202;28;20032;-74
2024/02/15 10:03:02;;;;;;;5.63;2.20;;;14.60;99.90;;;;;;5040713;28;20039;-75
2024/02/15 10:05:28;;;;;;;5.75;2.20;;;14.70;99.90;;;;;;5043825;28;20025;-73
2024/02/15 10:08:03;;;;;;;7.15;3.05;;;14.70;99.90;;;;;;5041381;28;20441;-72
2024/02/15 10:10:29;;;;;;;8.45;2.40;;;14.80;99.90;;;;;;5041090;28;20025;-73
2024/02/15 10:12:55;;;;;;;5.50;2.10;;;14.90;99.90;;;;;;5040785;28;20036;-74
2024/02/15 10:15:38;;;;;;;6.18;5.03;;;14.90;99.90;;;;;;5042586;28;20021;-73
2024/02/15 10:18:05;;;;;;;;;;;15.00;99.90;;;;;;5043851;28;20455;-75
2024/02/15 10:20:31;;;;;;;4.85;1.65;;;15.00;99.90;;;;;;5039749;28;19909;-72
2024/02/15 10:23:00;;;;;;;3.70;1.85;;;15.00;99.90;;;;;;5035691;28;20045;-74
2024/02/15 10:25:29;;;;;;;12.88;2.60;;;15.10;99.90;;;;;;5036257;28;20063;-72
2024/02/15 10:28:11;;;;;;;8.15;2.17;;;15.20;99.90;;;;;;5041981;28;20025;-73
2024/02/15 10:30:39;;;;;;;4.53;1.80;;;15.30;99.90;;;;;;5045098;28;20025;-75
2024/02/15 10:33:07;;;;;;;5.05;2.10;;;15.30;99.90;;;;;;5039618;28;20060;-75
2024/02/15 10:35:36;;;;;;;4.50;1.42;;;15.40;99.90;;;;;;5041790;28;20033;-75
2024/02/15 10:38:10;;;;;;;8.48;2.00;;;15.40;99.90;;;;;;5038303;28;20116;-75
2024/02/15 10:40:43;;;;;;;5.07;1.80;;;15.40;99.90;;;;;;5037112;28;20489;-75
2024/02/15 10:43:13;;;;;;;6.63;1.88;;;15.50;99.90;;;;;;5040162;28;20045;-75
2024/02/15 10:45:42;;;;;;;2.88;1.70;;;15.50;99.90;;;;;;5040889;28;20378;-75
2024/02/15 10:48:09;;;;;;;6.68;1.95;;;15.60;99.90;;;;;;5040514;28;20025;-75
2024/02/15 10:50:36;;;;;;;5.65;1.88;;;15.60;99.90;;;;;;5038494;28;20017;-75
2024/02/15 10:53:27;;;;;;;3.78;1.88;;;15.70;99.90;;;;;;5037198;28;20133;-74
2024/02/15 10:55:58;;;;;;;3.70;1.95;;;15.70;99.90;;;;;;5039037;28;20037;-76
2024/02/15 10:58:29;;;;;;;6.95;1.88;;;15.70;99.90;;;;;;5040294;28;20033;-76
2024/02/15 11:00:56;;;;;;;4.38;1.45;;;15.70;99.90;;;;;;5038645;28;20186;-76
2024/02/15 11:03:36;;;;;;;5.18;1.33;;;15.80;99.90;;;;;;5037899;28;20115;-76
2024/02/15 11:06:04;;;;;;;6.07;1.83;;;15.90;99.90;;;;;;5042187;28;20025;-76
2024/02/15 11:08:32;;;;;;;3.25;1.90;;;16.00;99.90;;;;;;5038950;28;20320;-73
2024/02/15 11:10:59;;;;;;;4.28;1.40;;;16.00;99.90;;;;;;5043754;28;20021;-73
2024/02/15 11:13:25;;;;;;;4.35;1.50;;;16.00;99.90;;;;;;5041161;28;20025;-74
2024/02/15 11:15:53;;;;;;;6.53;2.05;;;16.10;99.90;;;;;;5039731;28;20064;-75
2024/02/15 11:18:51;;;;;;;7.13;2.03;;;16.10;99.90;;;;;;5037762;28;20033;-74
2024/02/15 11:21:18;;;;;;;6.60;1.50;;;16.20;99.90;;;;;;5039112;28;20158;-74
2024/02/15 11:23:44;;;;;;;3.72;1.50;;;16.20;99.90;;;;;;5036227;28;20021;-74
2024/02/15 11:26:46;;;;;;;6.00;1.35;;;16.20;99.90;;;;;;5040555;28;20021;-74
2024/02/15 11:30:02;;;;;;;4.63;1.40;;;16.20;99.90;;;;;;5039104;28;20029;-74
2024/02/15 11:32:44;;;;;;;5.78;1.20;;;16.20;99.90;;;;;;5038243;28;20029;-74
2024/02/15 11:35:20;;;;;;;2.83;1.50;;;16.30;99.90;;;;;;5034827;28;20033;-74
2024/02/15 11:37:58;;;;;;;5.95;1.30;;;16.30;99.90;;;;;;5038932;28;20151;-74
2024/02/15 11:40:41;;;;;;;64.07;23.42;;;16.30;99.90;;;;;;5040756;28;20166;-74
2024/02/15 11:43:10;;;;;;;28.33;9.73;;;16.30;99.90;;;;;;5032979;28;20194;-74
2024/02/15 11:45:40;;;;;;;7.10;3.47;;;16.30;99.90;;;;;;5036314;28;20021;-73
2024/02/15 11:48:11;;;;;;;2.50;1.35;;;16.40;99.90;;;;;;5039747;28;20029;-73
2024/02/15 11:50:37;;;;;;;16.23;5.55;;;16.40;99.90;;;;;;5035728;28;20136;-73
2024/02/15 11:53:08;;;;;;;13.40;4.90;;;16.40;99.90;;;;;;5037166;28;20024;-74
2024/02/15 11:55:36;;;;;;;11.10;4.63;;;16.50;99.90;;;;;;5034253;28;20044;-74
2024/02/15 11:58:30;;;;;;;9.18;2.20;;;16.50;99.90;;;;;;5039352;28;20024;-74
2024/02/15 12:20:10;;;;;;;7.70;1.70;;;16.90;99.90;;;;;;5031130;28;20036;-73
2024/02/15 12:22:41;;;;;;;5.43;1.52;;;17.00;99.90;;;;;;5038728;28;20036;-72
2024/02/15 12:25:14;;;;;;;4.43;2.15;;;16.90;99.90;;;;;;5033878;28;20027;-73
2024/02/15 12:27:46;;;;;;;3.58;1.25;;;16.90;99.90;;;;;;5040131;28;20032;-72
2024/02/15 12:30:21;;;;;;;4.78;1.40;;;17.00;99.90;;;;;;5033909;28;20029;-74
2024/02/15 12:32:50;;;;;;;3.22;1.13;;;17.10;99.90;;;;;;5035040;28;20040;-74
2024/02/15 12:35:20;;;;;;;6.70;1.67;;;17.20;99.90;;;;;;5031546;28;20025;-73
2024/02/15 12:38:05;;;;;;;2.33;1.33;;;17.20;99.90;;;;;;5039513;28;20049;-74
2024/02/15 12:40:38;;;;;;;7.20;1.40;;;17.30;99.90;;;;;;5034692;28;20514;-74
2024/02/15 12:43:08;;;;;;;2.92;1.35;;;17.40;99.90;;;;;;5034343;28;20292;-72
2024/02/15 12:45:39;;;;;;;3.88;1.38;;;17.40;99.90;;;;;;5036080;28;20009;-72
2024/02/15 12:48:08;;;;;;;4.13;1.15;;;17.40;99.90;;;;;;5037567;28;20481;-72
2024/02/15 12:50:36;;;;;;;5.53;1.95;;;17.40;99.90;;;;;;5034744;28;20112;-72
2024/02/15 12:53:02;;;;;;;1.52;0.98;;;17.40;99.90;;;;;;5035517;28;20080;-72
2024/02/15 12:55:34;;;;;;;2.83;1.20;;;17.40;99.90;;;;;;5038154;28;20024;-72
2024/02/15 12:58:13;;;;;;;3.20;1.60;;;17.40;99.90;;;;;;5037486;28;20492;-72
2024/02/15 13:00:39;;;;;;;2.45;1.25;;;17.40;99.90;;;;;;5033195;28;20045;-74
2024/02/15 13:03:10;;;;;;;2.88;1.20;;;17.50;99.90;;;;;;5035554;28;20037;-73
2024/02/15 13:05:37;;;;;;;3.72;1.38;;;17.60;99.90;;;;;;5034673;28;20518;-73
2024/02/15 13:08:10;;;;;;;3.30;1.55;;;17.70;99.90;;;;;;5037832;28;20459;-73
2024/02/15 13:10:36;;;;;;;2.88;1.20;;;17.70;99.90;;;;;;5038778;28;20025;-73
2024/02/15 13:13:02;;;;;;;6.63;1.20;;;17.80;99.90;;;;;;5037795;28;20025;-73
2024/02/15 13:15:32;;;;;;;5.53;1.15;;;17.70;99.90;;;;;;5034679;28;20028;-73